Time;durP1;ratioP1;P1;durP2;ratioP2;P2;SDS_P1;SDS_P2;PMS_P1;PMS_P2;Temp;Humidity;BMP_temperature;BMP_pressure;BME280_temperature;BME280_humidity;BME280_pressure;Samples;Min_cycle;Max_cycle;Signal;HPM_P1;HPM_P2
2020/12/05 00:02:08;;;;;;;6.87;4.33;;;;;;;;;;4973446;28;20553;-84
2020/12/05 00:05:13;;;;;;;5.73;3.87;;;;;;;;;;4962477;28;20593;-84
2020/12/05 00:08:16;;;;;;;6.80;4.30;;;;;;;;;;4961873;28;21226;-84
2020/12/05 00:11:28;;;;;;;6.73;3.90;;;;;;;;;;4984136;28;20557;-84
2020/12/05 00:14:32;;;;;;;6.70;4.27;;;;;;;;;;4973237;28;21068;-84
2020/12/05 00:17:37;;;;;;;6.73;4.27;;;;;;;;;;4961979;28;20549;-84
2020/12/05 00:20:41;;;;;;;7.70;4.53;;;;;;;;;;4962059;28;20550;-84
2020/12/05 00:23:45;;;;;;;6.10;3.97;;;;;;;;;;4962050;28;20549;-84
2020/12/05 00:26:54;;;;;;;6.67;4.23;;;;;;;;;;4972674;28;20605;-84
2020/12/05 00:29:58;;;;;;;5.60;4.07;;;;;;;;;;4972564;28;20657;-84
2020/12/05 00:33:03;;;;;;;5.57;4.03;;;;;;;;;;4984307;28;20546;-84
2020/12/05 00:36:08;;;;;;;5.87;3.67;;;;;;;;;;4983967;28;20604;-84
2020/12/05 00:39:13;;;;;;;4.87;3.43;;;;;;;;;;4983608;28;20637;-84
2020/12/05 00:42:17;;;;;;;6.23;3.47;;;;;;;;;;4961744;28;20557;-85
2020/12/05 00:45:21;;;;;;;4.87;3.37;;;;;;;;;;4961927;28;20549;-84
2020/12/05 00:48:25;;;;;;;6.80;3.97;;;;;;;;;;4972331;28;21206;-85
2020/12/05 00:51:30;;;;;;;5.60;3.60;;;;;;;;;;4972488;28;20546;-85
2020/12/05 00:54:34;;;;;;;6.97;3.40;;;;;;;;;;4972548;28;20561;-85
2020/12/05 00:57:38;;;;;;;5.77;3.17;;;;;;;;;;4972460;28;20882;-85
2020/12/05 01:00:42;;;;;;;6.80;3.60;;;;;;;;;;4972359;28;21067;-85
2020/12/05 01:03:46;;;;;;;4.67;3.10;;;;;;;;;;4972205;28;21078;-84
2020/12/05 01:06:50;;;;;;;4.17;3.23;;;;;;;;;;4961509;28;20538;-85
2020/12/05 01:09:54;;;;;;;4.43;3.23;;;;;;;;;;4960956;28;20653;-84
2020/12/05 01:13:01;;;;;;;4.13;2.50;;;;;;;;;;4971559;28;20541;-85
2020/12/05 01:16:05;;;;;;;4.20;3.13;;;;;;;;;;4972254;28;21060;-85
2020/12/05 01:19:09;;;;;;;4.07;2.80;;;;;;;;;;4972141;28;20621;-85
2020/12/05 01:22:13;;;;;;;4.67;3.17;;;;;;;;;;4972328;28;20545;-85
2020/12/05 01:25:17;;;;;;;4.07;2.70;;;;;;;;;;4971873;28;20553;-85
2020/12/05 01:28:21;;;;;;;5.10;2.90;;;;;;;;;;4960916;28;20621;-85
2020/12/05 01:31:26;;;;;;;4.40;2.80;;;;;;;;;;4961119;28;21159;-85
2020/12/05 01:34:30;;;;;;;2.93;2.30;;;;;;;;;;4960759;28;20541;-85
2020/12/05 01:37:33;;;;;;;5.47;2.73;;;;;;;;;;4971722;28;21163;-84
2020/12/05 01:40:38;;;;;;;5.33;2.47;;;;;;;;;;4982478;28;20601;-84
2020/12/05 01:43:43;;;;;;;4.30;2.97;;;;;;;;;;4971457;28;20546;-84
2020/12/05 01:46:47;;;;;;;4.30;2.23;;;;;;;;;;4971376;28;20558;-85
2020/12/05 01:49:51;;;;;;;5.00;2.17;;;;;;;;;;4960176;28;20662;-84
2020/12/05 01:52:55;;;;;;;3.70;2.40;;;;;;;;;;4971327;28;20597;-84
2020/12/05 01:56:00;;;;;;;3.87;2.70;;;;;;;;;;4971418;28;20562;-84
2020/12/05 01:59:05;;;;;;;4.60;3.00;;;;;;;;;;4982583;28;20984;-84
2020/12/05 02:02:09;;;;;;;3.67;2.47;;;;;;;;;;4982370;28;20553;-84
2020/12/05 02:05:21;;;;;;;4.30;2.10;;;;;;;;;;4971265;28;20602;-84
2020/12/05 02:08:30;;;;;;;4.03;2.50;;;;;;;;;;4982228;28;20628;-84
2020/12/05 02:11:40;;;;;;;2.97;2.20;;;;;;;;;;4971394;28;20534;-84
2020/12/05 02:14:48;;;;;;;3.53;2.20;;;;;;;;;;4982323;28;20882;-84
2020/12/05 02:17:59;;;;;;;3.77;2.30;;;;;;;;;;4971496;28;20542;-84
2020/12/05 02:21:04;;;;;;;3.80;2.77;;;;;;;;;;4960343;28;20538;-84
2020/12/05 02:24:09;;;;;;;3.27;2.13;;;;;;;;;;4985705;28;20542;-84
2020/12/05 02:27:15;;;;;;;3.20;1.90;;;;;;;;;;4974976;28;20561;-84
2020/12/05 02:30:19;;;;;;;2.93;1.83;;;;;;;;;;4975380;28;20593;-84
2020/12/05 02:33:23;;;;;;;3.40;2.20;;;;;;;;;;4986254;28;20541;-84
2020/12/05 02:36:29;;;;;;;2.90;2.03;;;;;;;;;;4977703;28;20538;-84
2020/12/05 02:39:35;;;;;;;3.57;1.90;;;;;;;;;;4965166;28;20644;-85
2020/12/05 02:42:39;;;;;;;2.87;2.10;;;;;;;;;;4986153;28;20542;-85
2020/12/05 02:45:44;;;;;;;2.60;1.90;;;;;;;;;;4963870;28;20545;-85
2020/12/05 02:48:48;;;;;;;4.00;2.20;;;;;;;;;;4963493;28;20632;-85
2020/12/05 02:51:52;;;;;;;2.70;1.80;;;;;;;;;;4963805;28;20541;-85
2020/12/05 02:54:56;;;;;;;2.70;2.10;;;;;;;;;;4974631;28;20930;-85
2020/12/05 02:58:00;;;;;;;2.33;1.60;;;;;;;;;;4963743;28;21080;-85
2020/12/05 03:01:04;;;;;;;2.50;1.67;;;;;;;;;;4963507;28;20553;-85
2020/12/05 03:04:09;;;;;;;2.30;1.90;;;;;;;;;;4963689;28;20549;-85
2020/12/05 03:07:15;;;;;;;2.83;1.80;;;;;;;;;;4974544;28;20546;-85
2020/12/05 03:10:20;;;;;;;2.90;2.20;;;;;;;;;;4974479;28;20603;-85
2020/12/05 03:13:24;;;;;;;3.77;2.20;;;;;;;;;;4963358;28;20541;-85
2020/12/05 03:16:28;;;;;;;2.90;2.20;;;;;;;;;;4985377;28;20613;-85
2020/12/05 03:19:32;;;;;;;3.70;2.23;;;;;;;;;;4963217;28;20628;-85
2020/12/05 03:22:36;;;;;;;4.10;2.47;;;;;;;;;;4974502;28;20609;-85
2020/12/05 03:25:40;;;;;;;3.03;2.30;;;;;;;;;;4973770;28;20597;-85
2020/12/05 03:28:45;;;;;;;5.10;2.60;;;;;;;;;;4973974;28;20624;-85
2020/12/05 03:32:02;;;;;;;3.80;2.73;;;;;;;;;;4985148;28;20550;-85
2020/12/05 03:35:06;;;;;;;4.87;3.03;;;;;;;;;;4972879;28;20537;-85
2020/12/05 03:38:10;;;;;;;4.47;3.20;;;;;;;;;;4984809;28;20636;-85
2020/12/05 03:41:14;;;;;;;7.57;4.37;;;;;;;;;;4984940;28;20553;-84
2020/12/05 03:44:19;;;;;;;10.57;6.57;;;;;;;;;;4963097;28;20538;-84
2020/12/05 03:47:23;;;;;;;13.83;6.50;;;;;;;;;;4973790;28;20558;-84
2020/12/05 03:50:27;;;;;;;11.17;6.67;;;;;;;;;;4962723;28;20589;-84
2020/12/05 03:53:30;;;;;;;16.00;9.33;;;;;;;;;;4973673;28;20545;-84
2020/12/05 03:56:35;;;;;;;17.13;9.67;;;;;;;;;;4984535;28;20561;-84
2020/12/05 03:59:39;;;;;;;20.73;11.53;;;;;;;;;;4962114;28;20632;-84
2020/12/05 04:02:43;;;;;;;23.70;12.40;;;;;;;;;;4984311;28;20597;-84
2020/12/05 04:05:47;;;;;;;22.23;13.57;;;;;;;;;;4973377;28;20600;-84
2020/12/05 04:08:51;;;;;;;28.00;16.47;;;;;;;;;;4973466;28;21183;-84
2020/12/05 04:11:55;;;;;;;31.43;17.13;;;;;;;;;;4984107;28;20878;-84
2020/12/05 04:14:59;;;;;;;29.20;16.80;;;;;;;;;;4973896;28;21003;-84
2020/12/05 04:18:04;;;;;;;32.03;17.63;;;;;;;;;;4973141;28;20537;-85
2020/12/05 04:21:08;;;;;;;29.87;17.77;;;;;;;;;;4973088;28;21086;-85
2020/12/05 04:24:12;;;;;;;29.67;17.70;;;;;;;;;;4973080;28;20580;-85
2020/12/05 04:27:16;;;;;;;34.57;18.53;;;;;;;;;;4985045;28;20881;-85
2020/12/05 04:30:20;;;;;;;28.80;17.13;;;;;;;;;;4972933;28;20594;-85
2020/12/05 04:33:24;;;;;;;29.53;18.10;;;;;;;;;;4973019;28;20545;-85
2020/12/05 04:36:28;;;;;;;30.43;17.37;;;;;;;;;;4983910;28;20542;-85
2020/12/05 04:39:32;;;;;;;35.00;17.90;;;;;;;;;;5025489;23;20694;-86
2020/12/05 04:42:44;;;;;;;33.53;18.00;;;;;;;;;;5002057;28;20595;-86
2020/12/05 04:45:50;;;;;;;33.33;18.47;;;;;;;;;;5002065;28;20939;-86
2020/12/05 04:48:55;;;;;;;28.43;17.87;;;;;;;;;;4997096;28;20620;-86
2020/12/05 04:52:22;;;;;;;31.53;17.47;;;;;;;;;;4994088;28;20617;-87
2020/12/05 04:55:30;;;;;;;32.30;18.17;;;;;;;;;;4983311;28;20557;-85
2020/12/05 04:58:36;;;;;;;34.43;18.67;;;;;;;;;;4994419;28;20537;-87
2020/12/05 05:01:40;;;;;;;31.60;18.47;;;;;;;;;;4993667;28;20549;-86
2020/12/05 05:04:47;;;;;;;30.23;19.47;;;;;;;;;;4983259;28;20545;-86
2020/12/05 05:07:54;;;;;;;30.77;18.07;;;;;;;;;;4983046;28;20545;-87
2020/12/05 05:11:10;;;;;;;35.17;19.23;;;;;;;;;;4993885;28;20600;-86
2020/12/05 05:14:14;;;;;;;34.93;19.53;;;;;;;;;;4983066;28;20541;-86
2020/12/05 05:17:19;;;;;;;31.80;18.53;;;;;;;;;;4993637;28;20560;-86
2020/12/05 05:20:22;;;;;;;34.40;19.27;;;;;;;;;;4993700;28;20635;-86
2020/12/05 05:23:28;;;;;;;33.40;19.33;;;;;;;;;;4983272;28;20545;-86
2020/12/05 05:26:32;;;;;;;33.67;18.53;;;;;;;;;;5005521;28;20553;-86
2020/12/05 05:29:44;;;;;;;34.93;18.60;;;;;;;;;;4993760;28;20619;-86
2020/12/05 05:32:50;;;;;;;32.87;19.70;;;;;;;;;;5005244;28;20935;-87
2020/12/05 05:35:54;;;;;;;33.03;18.07;;;;;;;;;;4993908;28;21095;-86
2020/12/05 05:39:08;;;;;;;30.27;18.03;;;;;;;;;;4993745;28;21233;-86
2020/12/05 05:42:12;;;;;;;32.10;18.13;;;;;;;;;;4993447;28;20541;-86
2020/12/05 05:45:27;;;;;;;32.43;18.03;;;;;;;;;;4982607;28;20536;-86
2020/12/05 05:48:31;;;;;;;33.73;17.97;;;;;;;;;;4993569;28;20881;-85
2020/12/05 05:51:49;;;;;;;34.77;18.57;;;;;;;;;;4993381;28;20596;-86
2020/12/05 05:54:54;;;;;;;30.90;18.47;;;;;;;;;;5015250;28;20557;-86
2020/12/05 05:57:59;;;;;;;35.97;18.07;;;;;;;;;;4981391;28;20936;-87
2020/12/05 06:01:03;;;;;;;33.70;18.23;;;;;;;;;;4991536;28;20549;-85
2020/12/05 06:04:13;;;;;;;30.97;18.97;;;;;;;;;;4980349;28;20569;-85
2020/12/05 06:07:23;;;;;;;30.20;18.23;;;;;;;;;;4980388;28;20889;-85
2020/12/05 06:10:28;;;;;;;33.67;17.33;;;;;;;;;;4991175;28;20660;-85
2020/12/05 06:13:33;;;;;;;35.77;19.60;;;;;;;;;;4981034;28;20549;-85
2020/12/05 06:16:40;;;;;;;34.33;19.10;;;;;;;;;;4980717;28;20605;-87
2020/12/05 06:19:46;;;;;;;37.07;19.33;;;;;;;;;;4991524;28;20629;-86
2020/12/05 06:22:51;;;;;;;28.03;16.57;;;;;;;;;;5002442;28;20608;-88
2020/12/05 06:25:58;;;;;;;29.00;18.43;;;;;;;;;;5002809;28;20596;-87
2020/12/05 06:29:06;;;;;;;34.37;18.20;;;;;;;;;;4991866;28;20627;-87
2020/12/05 06:32:10;;;;;;;33.20;18.07;;;;;;;;;;5002216;28;20608;-87
2020/12/05 06:35:17;;;;;;;32.07;19.37;;;;;;;;;;5001914;28;20599;-87
2020/12/05 06:38:22;;;;;;;36.23;20.50;;;;;;;;;;5002228;28;20596;-87
2020/12/05 06:41:34;;;;;;;37.37;21.77;;;;;;;;;;4990962;28;20548;-87
2020/12/05 06:44:38;;;;;;;47.23;25.73;;;;;;;;;;5002304;28;20588;-88
2020/12/05 06:47:42;;;;;;;43.60;24.17;;;;;;;;;;4979895;28;20545;-87
2020/12/05 06:50:46;;;;;;;40.13;23.07;;;;;;;;;;4990979;28;20604;-87
2020/12/05 06:53:50;;;;;;;38.53;21.83;;;;;;;;;;4979954;28;20544;-87
2020/12/05 06:57:11;;;;;;;39.73;21.43;;;;;;;;;;4991192;28;20536;-88
2020/12/05 07:00:16;;;;;;;34.10;20.03;;;;;;;;;;4979301;28;20624;-87
2020/12/05 07:03:31;;;;;;;33.30;19.57;;;;;;;;;;5002022;28;20884;-87
2020/12/05 07:06:35;;;;;;;34.87;19.67;;;;;;;;;;4990702;28;20541;-87
2020/12/05 07:09:46;;;;;;;33.00;19.57;;;;;;;;;;5003755;28;20635;-87
2020/12/05 07:12:50;;;;;;;32.73;18.10;;;;;;;;;;4983533;28;20886;-88
2020/12/05 07:16:26;;;;;;;35.83;18.80;;;;;;;;;;4994562;28;20548;-87
2020/12/05 07:19:30;;;;;;;32.47;19.03;;;;;;;;;;4983120;28;20611;-87
2020/12/05 07:22:34;;;;;;;28.80;18.10;;;;;;;;;;4994280;28;20599;-87
2020/12/05 07:25:38;;;;;;;29.17;18.03;;;;;;;;;;5005303;28;20555;-87
2020/12/05 07:28:49;;;;;;;30.57;18.40;;;;;;;;;;4983159;28;20616;-87
2020/12/05 07:31:53;;;;;;;30.87;18.33;;;;;;;;;;5004763;28;20619;-87
2020/12/05 07:34:58;;;;;;;31.07;18.10;;;;;;;;;;5005423;28;20603;-87
2020/12/05 07:38:11;;;;;;;28.97;17.30;;;;;;;;;;4982836;28;20596;-87
2020/12/05 07:41:20;;;;;;;28.90;18.10;;;;;;;;;;4994455;28;20557;-87
2020/12/05 07:44:25;;;;;;;29.60;17.20;;;;;;;;;;5005789;28;20905;-87
2020/12/05 07:47:29;;;;;;;29.33;17.57;;;;;;;;;;4994230;28;21106;-87
2020/12/05 07:50:33;;;;;;;31.10;18.23;;;;;;;;;;4993691;28;20635;-87
2020/12/05 07:53:37;;;;;;;29.53;18.63;;;;;;;;;;5004205;28;20595;-87
2020/12/05 07:56:41;;;;;;;31.87;17.57;;;;;;;;;;4993463;28;20552;-87
2020/12/05 07:59:45;;;;;;;29.50;17.10;;;;;;;;;;5004595;28;20635;-87
2020/12/05 08:03:12;;;;;;;30.43;18.33;;;;;;;;;;5004390;28;20552;-87
2020/12/05 08:06:22;;;;;;;28.70;17.60;;;;;;;;;;4993096;28;20541;-87
2020/12/05 08:09:38;;;;;;;26.80;17.23;;;;;;;;;;4993623;28;20637;-87
2020/12/05 08:13:08;;;;;;;30.00;18.13;;;;;;;;;;4992712;28;20648;-90
2020/12/05 08:16:15;;;;;;;36.67;18.43;;;;;;;;;;4973407;28;20616;-86
2020/12/05 08:19:22;;;;;;;43.77;23.73;;;;;;;;;;4981994;28;20627;-88
2020/12/05 08:22:27;;;;;;;51.47;32.87;;;;;;;;;;4981645;28;20868;-87
2020/12/05 08:25:32;;;;;;;53.90;32.70;;;;;;;;;;4992849;28;20538;-87
2020/12/05 08:28:39;;;;;;;46.70;29.17;;;;;;;;;;4993337;28;20903;-87
2020/12/05 08:31:44;;;;;;;43.73;26.40;;;;;;;;;;5005312;28;20612;-85
2020/12/05 08:34:48;;;;;;;44.57;26.90;;;;;;;;;;4985404;28;20541;-85
2020/12/05 08:37:53;;;;;;;41.80;23.80;;;;;;;;;;4998527;28;20537;-86
2020/12/05 08:41:01;;;;;;;55.80;32.93;;;;;;;;;;5009372;28;20533;-88
2020/12/05 08:44:10;;;;;;;50.63;29.07;;;;;;;;;;4998618;28;20552;-88
2020/12/05 08:47:14;;;;;;;50.93;30.53;;;;;;;;;;4988274;28;20549;-86
2020/12/05 08:50:32;;;;;;;39.10;23.97;;;;;;;;;;4988918;28;20627;-87
2020/12/05 08:53:36;;;;;;;32.47;20.97;;;;;;;;;;5000395;28;20526;-86
2020/12/05 08:56:41;;;;;;;37.03;22.90;;;;;;;;;;5010527;28;21185;-87
2020/12/05 08:59:46;;;;;;;34.47;22.03;;;;;;;;;;4999746;28;20628;-87
2020/12/05 09:02:50;;;;;;;37.77;22.20;;;;;;;;;;4999567;28;20552;-87
2020/12/05 09:05:55;;;;;;;33.93;21.07;;;;;;;;;;5009241;28;20562;-87
2020/12/05 09:09:00;;;;;;;28.03;18.10;;;;;;;;;;4988051;28;21174;-87
2020/12/05 09:12:08;;;;;;;36.60;19.67;;;;;;;;;;4989105;28;21019;-87
2020/12/05 09:15:13;;;;;;;28.67;18.63;;;;;;;;;;4997565;28;21146;-89
2020/12/05 09:18:17;;;;;;;32.53;18.03;;;;;;;;;;5000648;28;20541;-87
2020/12/05 09:21:21;;;;;;;29.63;18.83;;;;;;;;;;4996584;28;21083;-87
2020/12/05 09:24:40;;;;;;;31.07;18.37;;;;;;;;;;5005057;28;20557;-86
2020/12/05 09:27:45;;;;;;;32.27;17.97;;;;;;;;;;4979691;28;20612;-86
2020/12/05 09:30:49;;;;;;;29.40;17.97;;;;;;;;;;4961633;28;20549;-85
2020/12/05 09:33:53;;;;;;;27.60;18.40;;;;;;;;;;4998084;28;20577;-86
2020/12/05 09:36:57;;;;;;;31.13;19.40;;;;;;;;;;4992226;28;20596;-86
2020/12/05 09:40:04;;;;;;;27.30;17.63;;;;;;;;;;4980675;28;20652;-85
2020/12/05 09:43:08;;;;;;;46.27;30.60;;;;;;;;;;4980558;28;20599;-84
2020/12/05 09:46:12;;;;;;;29.33;18.87;;;;;;;;;;4991210;28;20962;-84
2020/12/05 09:49:18;;;;;;;31.87;20.40;;;;;;;;;;4981361;28;20628;-84
2020/12/05 09:52:22;;;;;;;43.00;24.40;;;;;;;;;;4985625;28;20632;-87
2020/12/05 09:55:27;;;;;;;38.90;23.07;;;;;;;;;;4986059;28;20589;-85
2020/12/05 09:58:31;;;;;;;35.03;21.50;;;;;;;;;;4983953;28;20558;-83
2020/12/05 10:01:36;;;;;;;35.13;20.03;;;;;;;;;;4997222;28;20600;-85
2020/12/05 10:04:40;;;;;;;32.63;21.40;;;;;;;;;;4991619;28;21072;-84
2020/12/05 10:07:44;;;;;;;34.93;21.33;;;;;;;;;;4980025;28;20541;-83
2020/12/05 10:10:48;;;;;;;32.53;20.47;;;;;;;;;;4970025;28;20597;-83
2020/12/05 10:13:52;;;;;;;31.63;19.57;;;;;;;;;;4990287;28;20577;-82
2020/12/05 10:16:57;;;;;;;27.50;17.57;;;;;;;;;;4990387;28;21173;-82
2020/12/05 10:20:03;;;;;;;27.07;16.77;;;;;;;;;;4987336;28;20649;-81
2020/12/05 10:23:07;;;;;;;25.70;15.70;;;;;;;;;;4971547;28;20593;-81
2020/12/05 10:26:11;;;;;;;24.10;15.67;;;;;;;;;;4981227;28;20596;-81
2020/12/05 10:29:16;;;;;;;24.37;15.63;;;;;;;;;;4961372;28;21167;-81
2020/12/05 10:32:20;;;;;;;25.80;16.10;;;;;;;;;;4985730;28;20661;-82
2020/12/05 10:35:24;;;;;;;23.23;14.87;;;;;;;;;;4990595;28;21196;-83
2020/12/05 10:38:28;;;;;;;25.73;16.17;;;;;;;;;;4999733;28;21201;-83
2020/12/05 10:41:34;;;;;;;23.47;15.33;;;;;;;;;;5026172;23;20695;-71
2020/12/05 10:44:38;;;;;;;25.57;15.67;;;;;;;;;;4984002;28;20534;-71
2020/12/05 10:47:43;;;;;;;25.30;16.07;;;;;;;;;;4989977;28;21257;-72
2020/12/05 10:50:46;;;;;;;25.77;14.37;;;;;;;;;;4991558;28;21217;-71
2020/12/05 10:53:51;;;;;;;23.33;14.93;;;;;;;;;;4974351;28;20593;-72
2020/12/05 10:56:55;;;;;;;23.03;14.43;;;;;;;;;;4997183;28;20628;-71
2020/12/05 10:59:59;;;;;;;23.57;14.33;;;;;;;;;;4989751;28;21213;-72
2020/12/05 11:03:03;;;;;;;79.73;16.93;;;;;;;;;;4980274;28;21168;-75
2020/12/05 11:06:08;;;;;;;23.87;13.87;;;;;;;;;;4973511;28;20656;-75
2020/12/05 11:09:12;;;;;;;21.27;13.67;;;;;;;;;;4971699;28;20629;-73
2020/12/05 11:12:16;;;;;;;22.10;14.00;;;;;;;;;;4977230;28;20621;-73
2020/12/05 11:15:20;;;;;;;21.67;13.97;;;;;;;;;;4977735;28;21080;-72
2020/12/05 11:18:24;;;;;;;23.17;14.37;;;;;;;;;;4965624;28;20543;-73
2020/12/05 11:21:28;;;;;;;22.93;14.20;;;;;;;;;;4965564;28;20543;-73
2020/12/05 11:24:32;;;;;;;23.10;15.33;;;;;;;;;;4977093;28;20566;-73
2020/12/05 11:27:37;;;;;;;23.37;15.03;;;;;;;;;;4977290;28;20629;-72
2020/12/05 11:30:41;;;;;;;26.80;15.47;;;;;;;;;;4977466;28;20597;-72
2020/12/05 11:33:50;;;;;;;24.23;15.83;;;;;;;;;;4977421;28;20595;-73
2020/12/05 11:36:54;;;;;;;23.60;15.37;;;;;;;;;;4976861;28;20633;-72
2020/12/05 11:39:59;;;;;;;27.73;16.40;;;;;;;;;;4977437;28;20558;-72
2020/12/05 11:43:03;;;;;;;21.97;14.47;;;;;;;;;;4977336;28;20547;-72
2020/12/05 11:46:07;;;;;;;24.13;15.40;;;;;;;;;;4965004;28;20633;-72
2020/12/05 11:49:11;;;;;;;23.17;14.23;;;;;;;;;;4976668;28;20607;-72
2020/12/05 11:52:15;;;;;;;25.70;15.90;;;;;;;;;;4977043;28;20641;-72
2020/12/05 11:55:19;;;;;;;24.13;15.57;;;;;;;;;;4975778;28;20610;-72
2020/12/05 11:58:23;;;;;;;26.23;15.73;;;;;;;;;;4976478;28;20601;-71
2020/12/05 12:01:28;;;;;;;28.20;16.10;;;;;;;;;;4976753;28;20566;-72
2020/12/05 12:04:32;;;;;;;25.10;16.37;;;;;;;;;;4976698;28;20539;-71
2020/12/05 12:07:36;;;;;;;25.67;15.67;;;;;;;;;;4976228;28;20621;-71
2020/12/05 12:10:40;;;;;;;24.73;15.47;;;;;;;;;;4976659;28;21133;-71
2020/12/05 12:13:44;;;;;;;25.53;15.00;;;;;;;;;;4964597;28;20678;-71
2020/12/05 12:16:48;;;;;;;23.73;15.43;;;;;;;;;;4976219;28;20629;-71
2020/12/05 12:19:52;;;;;;;23.57;15.73;;;;;;;;;;4976168;28;20551;-71
2020/12/05 12:22:57;;;;;;;23.13;15.10;;;;;;;;;;4976319;28;20551;-71
2020/12/05 12:26:01;;;;;;;25.33;15.07;;;;;;;;;;4976349;28;20621;-71
2020/12/05 12:29:05;;;;;;;23.17;14.40;;;;;;;;;;4964474;28;20543;-71
2020/12/05 12:32:10;;;;;;;23.53;15.27;;;;;;;;;;4975909;28;20598;-71
2020/12/05 12:35:14;;;;;;;25.07;15.97;;;;;;;;;;4975890;28;20542;-71
2020/12/05 12:38:18;;;;;;;23.10;14.83;;;;;;;;;;4964196;28;20546;-71
2020/12/05 12:41:22;;;;;;;24.50;16.20;;;;;;;;;;4975781;28;20613;-71
2020/12/05 12:44:26;;;;;;;22.63;15.50;;;;;;;;;;4963761;28;21097;-71
2020/12/05 12:50:38;;;;;;;23.97;15.83;;;;;;;;;;4995436;28;20538;-71
2020/12/05 12:53:43;;;;;;;22.53;14.30;;;;;;;;;;4994806;28;20645;-70
2020/12/05 12:56:48;;;;;;;21.20;14.13;;;;;;;;;;4993484;28;20645;-71
2020/12/05 12:59:52;;;;;;;25.23;15.67;;;;;;;;;;4983046;28;20605;-71
2020/12/05 13:02:56;;;;;;;23.00;14.53;;;;;;;;;;4994857;28;20541;-71
2020/12/05 13:06:00;;;;;;;24.03;15.47;;;;;;;;;;4989577;28;20641;-71
2020/12/05 13:09:05;;;;;;;23.03;14.13;;;;;;;;;;4952684;28;20572;-71
2020/12/05 13:12:09;;;;;;;22.77;15.10;;;;;;;;;;4975100;28;20542;-72
2020/12/05 13:15:13;;;;;;;23.13;15.20;;;;;;;;;;4979294;28;20601;-72
2020/12/05 13:18:17;;;;;;;136.37;61.07;;;;;;;;;;4975549;28;20547;-72
2020/12/05 13:21:22;;;;;;;46.00;26.47;;;;;;;;;;4975206;28;20898;-72
2020/12/05 13:24:26;;;;;;;27.90;17.93;;;;;;;;;;4974357;28;20555;-72
2020/12/05 13:27:30;;;;;;;30.10;21.07;;;;;;;;;;4982166;28;20667;-72
2020/12/05 13:30:34;;;;;;;26.77;17.63;;;;;;;;;;4978831;28;20581;-72
2020/12/05 13:33:38;;;;;;;29.20;20.27;;;;;;;;;;4972815;28;20652;-72
2020/12/05 13:36:45;;;;;;;25.17;17.13;;;;;;;;;;4980492;28;21043;-72
2020/12/05 13:39:49;;;;;;;26.50;18.07;;;;;;;;;;4962935;28;20611;-74
2020/12/05 13:42:54;;;;;;;24.53;16.80;;;;;;;;;;4974675;28;21206;-74
2020/12/05 13:45:58;;;;;;;28.60;16.50;;;;;;;;;;4962585;28;20658;-74
2020/12/05 13:49:02;;;;;;;31.50;15.87;;;;;;;;;;4974667;28;20616;-74
2020/12/05 13:52:09;;;;;;;25.53;15.97;;;;;;;;;;4962878;28;20580;-73
2020/12/05 13:55:14;;;;;;;25.50;16.40;;;;;;;;;;4975447;28;20535;-75
2020/12/05 13:58:18;;;;;;;27.67;17.70;;;;;;;;;;4994290;28;20602;-75
2020/12/05 14:01:23;;;;;;;28.43;17.47;;;;;;;;;;4977859;28;20601;-73
2020/12/05 14:04:29;;;;;;;28.10;19.60;;;;;;;;;;4988700;28;20660;-73
2020/12/05 14:07:33;;;;;;;29.13;19.40;;;;;;;;;;4982235;28;20637;-73
2020/12/05 14:10:37;;;;;;;26.40;17.13;;;;;;;;;;4986014;28;20653;-73
2020/12/05 14:13:41;;;;;;;25.20;17.00;;;;;;;;;;4985400;28;20634;-73
2020/12/05 14:16:52;;;;;;;27.93;17.77;;;;;;;;;;4962742;28;20638;-73
2020/12/05 14:19:57;;;;;;;24.67;17.03;;;;;;;;;;4974219;28;20547;-73
2020/12/05 14:23:01;;;;;;;25.80;16.93;;;;;;;;;;4974117;28;21168;-73
2020/12/05 14:26:05;;;;;;;26.40;16.70;;;;;;;;;;4962698;28;20629;-73
2020/12/05 14:29:09;;;;;;;25.60;16.87;;;;;;;;;;4962626;28;20598;-73
2020/12/05 14:32:14;;;;;;;25.63;17.07;;;;;;;;;;4988720;28;20597;-74
2020/12/05 14:35:18;;;;;;;28.30;17.60;;;;;;;;;;4993761;28;20530;-74
2020/12/05 14:38:23;;;;;;;28.77;18.57;;;;;;;;;;4993048;28;20629;-74
2020/12/05 14:41:27;;;;;;;29.90;18.30;;;;;;;;;;4991811;28;20980;-74
2020/12/05 14:44:31;;;;;;;27.20;18.07;;;;;;;;;;4981946;28;20878;-74
2020/12/05 14:47:35;;;;;;;26.93;17.80;;;;;;;;;;4973060;28;21261;-73
2020/12/05 14:50:39;;;;;;;26.57;17.50;;;;;;;;;;4974074;28;20555;-74
2020/12/05 14:53:43;;;;;;;27.47;17.43;;;;;;;;;;4978077;28;20634;-74
2020/12/05 14:56:48;;;;;;;31.40;18.47;;;;;;;;;;4962119;28;20634;-75
2020/12/05 14:59:52;;;;;;;28.07;16.93;;;;;;;;;;4973025;28;20565;-75
2020/12/05 15:02:56;;;;;;;27.37;17.57;;;;;;;;;;4975408;28;20547;-75
2020/12/05 15:06:01;;;;;;;27.20;17.87;;;;;;;;;;4951154;28;20637;-74
2020/12/05 15:09:06;;;;;;;34.17;19.00;;;;;;;;;;4973642;28;20614;-74
2020/12/05 15:12:10;;;;;;;31.53;20.07;;;;;;;;;;4980336;28;20589;-74
2020/12/05 15:15:14;;;;;;;33.13;19.10;;;;;;;;;;4992725;28;20907;-74
2020/12/05 15:18:20;;;;;;;29.03;17.83;;;;;;;;;;4981426;28;20553;-74
2020/12/05 15:21:24;;;;;;;30.37;18.77;;;;;;;;;;4991211;28;20918;-74
2020/12/05 15:24:28;;;;;;;29.03;18.97;;;;;;;;;;4979678;28;20910;-75
2020/12/05 15:27:32;;;;;;;32.80;19.60;;;;;;;;;;4962226;28;20645;-75
2020/12/05 15:30:36;;;;;;;35.63;18.83;;;;;;;;;;4974140;28;20542;-75
2020/12/05 15:33:42;;;;;;;30.73;19.60;;;;;;;;;;4975103;28;20637;-75
2020/12/05 15:36:47;;;;;;;33.13;21.00;;;;;;;;;;4981379;28;20661;-75
2020/12/05 15:39:52;;;;;;;34.17;20.13;;;;;;;;;;4969747;28;21168;-75
2020/12/05 15:42:56;;;;;;;32.20;18.43;;;;;;;;;;4976604;28;20581;-77
2020/12/05 15:46:00;;;;;;;33.73;19.47;;;;;;;;;;4979297;28;20648;-75
2020/12/05 15:49:04;;;;;;;32.07;20.70;;;;;;;;;;4993416;28;20577;-75
2020/12/05 15:52:08;;;;;;;38.67;22.53;;;;;;;;;;4978948;28;20585;-75
2020/12/05 15:55:12;;;;;;;38.40;23.83;;;;;;;;;;4966594;28;20630;-75
2020/12/05 15:58:18;;;;;;;37.90;22.47;;;;;;;;;;4953941;28;20598;-75
2020/12/05 16:01:22;;;;;;;36.43;22.43;;;;;;;;;;4988138;28;20589;-74
2020/12/05 16:04:26;;;;;;;40.17;23.30;;;;;;;;;;4973052;28;21157;-74
2020/12/05 16:07:30;;;;;;;38.00;22.13;;;;;;;;;;4996034;28;20973;-75
2020/12/05 16:10:34;;;;;;;40.17;23.80;;;;;;;;;;4982581;28;20597;-76
2020/12/05 16:13:39;;;;;;;41.13;24.07;;;;;;;;;;4985016;28;20626;-76
2020/12/05 16:16:43;;;;;;;39.03;22.93;;;;;;;;;;4978128;28;20653;-76
2020/12/05 16:19:47;;;;;;;38.70;22.47;;;;;;;;;;4970538;28;20590;-76
2020/12/05 16:22:51;;;;;;;39.53;22.57;;;;;;;;;;4953343;28;20606;-75
2020/12/05 16:25:56;;;;;;;37.97;23.60;;;;;;;;;;4976509;28;20622;-75
2020/12/05 16:29:00;;;;;;;43.20;24.93;;;;;;;;;;4965417;28;20594;-77
2020/12/05 16:32:04;;;;;;;43.30;23.80;;;;;;;;;;4942184;28;21081;-76
2020/12/05 16:35:08;;;;;;;38.73;23.07;;;;;;;;;;4976098;28;20724;-76
2020/12/05 16:38:12;;;;;;;37.97;22.67;;;;;;;;;;4983909;28;20593;-76
2020/12/05 16:41:17;;;;;;;48.87;24.40;;;;;;;;;;4994098;28;21204;-76
2020/12/05 16:44:21;;;;;;;44.63;24.30;;;;;;;;;;4992837;28;20581;-76
2020/12/05 16:47:25;;;;;;;45.20;26.73;;;;;;;;;;4976928;28;20621;-75
2020/12/05 16:50:29;;;;;;;111.37;52.20;;;;;;;;;;4994905;28;20945;-75
2020/12/05 16:53:34;;;;;;;98.07;45.23;;;;;;;;;;4994789;28;20592;-75
2020/12/05 16:56:38;;;;;;;92.97;45.73;;;;;;;;;;4995136;28;20628;-75
2020/12/05 16:59:42;;;;;;;53.30;28.17;;;;;;;;;;4975576;28;20574;-74
2020/12/05 17:02:46;;;;;;;55.90;30.83;;;;;;;;;;4975268;28;20621;-75
2020/12/05 17:05:51;;;;;;;51.03;29.43;;;;;;;;;;4953499;28;20665;-75
2020/12/05 17:08:55;;;;;;;54.97;32.80;;;;;;;;;;4977456;28;20604;-75
2020/12/05 17:11:59;;;;;;;57.73;33.00;;;;;;;;;;4975146;28;20550;-75
2020/12/05 17:15:05;;;;;;;53.67;29.20;;;;;;;;;;4963160;28;21187;-75
2020/12/05 17:18:10;;;;;;;162.50;64.20;;;;;;;;;;4992804;28;20537;-75
2020/12/05 17:21:17;;;;;;;86.93;41.60;;;;;;;;;;4972013;28;20608;-75
2020/12/05 17:24:24;;;;;;;52.77;30.03;;;;;;;;;;4986136;28;20625;-75
2020/12/05 17:27:28;;;;;;;52.33;29.30;;;;;;;;;;4990809;28;20629;-76
2020/12/05 17:30:33;;;;;;;48.70;26.30;;;;;;;;;;4989953;28;20676;-75
2020/12/05 17:33:36;;;;;;;47.47;26.43;;;;;;;;;;4974807;28;20570;-75
2020/12/05 17:36:41;;;;;;;46.43;26.70;;;;;;;;;;4975661;28;20658;-76
2020/12/05 17:39:51;;;;;;;46.97;27.63;;;;;;;;;;4982213;28;20594;-75
2020/12/05 17:42:55;;;;;;;51.73;30.50;;;;;;;;;;4994281;28;20601;-75
2020/12/05 17:46:00;;;;;;;52.50;27.87;;;;;;;;;;4975037;28;20625;-76
2020/12/05 17:49:04;;;;;;;46.80;27.50;;;;;;;;;;4974485;28;20555;-75
2020/12/05 17:52:08;;;;;;;41.80;24.93;;;;;;;;;;4981450;28;20597;-75
2020/12/05 17:55:13;;;;;;;51.30;27.30;;;;;;;;;;4984569;28;20638;-75
2020/12/05 17:58:17;;;;;;;50.57;27.40;;;;;;;;;;4976548;28;20624;-75
2020/12/05 18:01:21;;;;;;;52.80;28.87;;;;;;;;;;4989704;28;20634;-75
2020/12/05 18:04:26;;;;;;;50.07;28.40;;;;;;;;;;4974306;28;20594;-75
2020/12/05 18:07:30;;;;;;;50.13;29.47;;;;;;;;;;4962653;28;20626;-75
2020/12/05 18:10:34;;;;;;;50.37;27.43;;;;;;;;;;4974524;28;20566;-75